sensor_id;sensor_type;location;lat;lon;timestamp;temperature;humidity
21403;DHT22;10862;51.886;17.078;2024-02-26T00:02:05;4.20;99.90
21403;DHT22;10862;51.886;17.078;2024-02-26T00:04:32;4.10;99.90
21403;DHT22;10862;51.886;17.078;2024-02-26T00:06:57;3.60;99.90
21403;DHT22;10862;51.886;17.078;2024-02-26T00:09:23;5.20;99.90
21403;DHT22;10862;51.886;17.078;2024-02-26T00:11:49;5.30;99.90
21403;DHT22;10862;51.886;17.078;2024-02-26T00:14:14;5.00;99.90
21403;DHT22;10862;51.886;17.078;2024-02-26T00:16:40;5.10;99.90
21403;DHT22;10862;51.886;17.078;2024-02-26T00:19:06;4.00;99.90
21403;DHT22;10862;51.886;17.078;2024-02-26T00:21:31;4.60;99.90
21403;DHT22;10862;51.886;17.078;2024-02-26T00:23:57;4.20;99.90
21403;DHT22;10862;51.886;17.078;2024-02-26T00:26:22;4.20;99.90
21403;DHT22;10862;51.886;17.078;2024-02-26T00:28:48;4.50;99.90
21403;DHT22;10862;51.886;17.078;2024-02-26T00:31:13;4.90;99.90
21403;DHT22;10862;51.886;17.078;2024-02-26T00:33:39;5.10;99.90
21403;DHT22;10862;51.886;17.078;2024-02-26T00:36:04;4.70;99.90
21403;DHT22;10862;51.886;17.078;2024-02-26T00:38:30;4.20;99.90
21403;DHT22;10862;51.886;17.078;2024-02-26T00:40:55;4.10;99.90
21403;DHT22;10862;51.886;17.078;2024-02-26T00:43:21;5.30;99.90
21403;DHT22;10862;51.886;17.078;2024-02-26T00:45:46;4.10;99.90
21403;DHT22;10862;51.886;17.078;2024-02-26T00:48:12;4.00;99.90
21403;DHT22;10862;51.886;17.078;2024-02-26T00:50:39;3.30;99.90
21403;DHT22;10862;51.886;17.078;2024-02-26T00:53:05;3.50;99.90
21403;DHT22;10862;51.886;17.078;2024-02-26T00:55:30;2.50;99.90
21403;DHT22;10862;51.886;17.078;2024-02-26T00:57:56;2.30;99.90
21403;DHT22;10862;51.886;17.078;2024-02-26T01:00:21;2.40;99.90
21403;DHT22;10862;51.886;17.078;2024-02-26T01:02:47;2.40;99.90
21403;DHT22;10862;51.886;17.078;2024-02-26T01:05:13;2.50;99.90
21403;DHT22;10862;51.886;17.078;2024-02-26T01:07:38;4.10;99.90
21403;DHT22;10862;51.886;17.078;2024-02-26T01:10:05;4.10;99.90
21403;DHT22;10862;51.886;17.078;2024-02-26T01:12:31;2.90;99.90
21403;DHT22;10862;51.886;17.078;2024-02-26T01:14:57;3.70;99.90
21403;DHT22;10862;51.886;17.078;2024-02-26T01:17:23;3.20;99.90
21403;DHT22;10862;51.886;17.078;2024-02-26T01:19:48;4.10;99.90
21403;DHT22;10862;51.886;17.078;2024-02-26T01:22:14;4.10;99.90
21403;DHT22;10862;51.886;17.078;2024-02-26T01:24:39;3.80;99.90
21403;DHT22;10862;51.886;17.078;2024-02-26T01:27:04;4.00;99.90
21403;DHT22;10862;51.886;17.078;2024-02-26T01:29:31;3.50;99.90
21403;DHT22;10862;51.886;17.078;2024-02-26T01:31:57;3.80;99.90
21403;DHT22;10862;51.886;17.078;2024-02-26T01:34:22;4.60;99.90
21403;DHT22;10862;51.886;17.078;2024-02-26T01:36:48;5.00;99.90
21403;DHT22;10862;51.886;17.078;2024-02-26T01:39:13;4.70;99.90
21403;DHT22;10862;51.886;17.078;2024-02-26T01:41:39;4.10;99.90
21403;DHT22;10862;51.886;17.078;2024-02-26T01:44:05;4.70;99.90
21403;DHT22;10862;51.886;17.078;2024-02-26T01:46:31;3.80;99.90
21403;DHT22;10862;51.886;17.078;2024-02-26T01:48:57;5.30;99.90
21403;DHT22;10862;51.886;17.078;2024-02-26T01:51:23;3.70;99.90
21403;DHT22;10862;51.886;17.078;2024-02-26T01:53:48;4.00;99.90
21403;DHT22;10862;51.886;17.078;2024-02-26T01:56:14;4.40;99.90
21403;DHT22;10862;51.886;17.078;2024-02-26T01:58:40;4.00;99.90
21403;DHT22;10862;51.886;17.078;2024-02-26T02:01:06;2.80;99.90
21403;DHT22;10862;51.886;17.078;2024-02-26T02:03:32;2.70;99.90
21403;DHT22;10862;51.886;17.078;2024-02-26T02:05:59;3.70;99.90
21403;DHT22;10862;51.886;17.078;2024-02-26T02:08:24;2.80;99.90
21403;DHT22;10862;51.886;17.078;2024-02-26T02:10:50;2.90;99.90
21403;DHT22;10862;51.886;17.078;2024-02-26T02:13:15;3.80;99.90
21403;DHT22;10862;51.886;17.078;2024-02-26T02:15:41;2.50;99.90
21403;DHT22;10862;51.886;17.078;2024-02-26T02:18:07;2.60;99.90
21403;DHT22;10862;51.886;17.078;2024-02-26T02:20:32;2.70;99.90
21403;DHT22;10862;51.886;17.078;2024-02-26T02:22:59;2.80;99.90
21403;DHT22;10862;51.886;17.078;2024-02-26T02:25:24;4.00;99.90
21403;DHT22;10862;51.886;17.078;2024-02-26T02:27:50;4.20;99.90
21403;DHT22;10862;51.886;17.078;2024-02-26T02:30:17;4.40;99.90
21403;DHT22;10862;51.886;17.078;2024-02-26T02:32:42;3.20;99.90
21403;DHT22;10862;51.886;17.078;2024-02-26T02:35:08;2.80;99.90
21403;DHT22;10862;51.886;17.078;2024-02-26T02:37:34;4.20;99.90
21403;DHT22;10862;51.886;17.078;2024-02-26T02:39:59;2.50;99.90
21403;DHT22;10862;51.886;17.078;2024-02-26T02:42:25;4.00;99.90
21403;DHT22;10862;51.886;17.078;2024-02-26T02:44:51;3.80;99.90
21403;DHT22;10862;51.886;17.078;2024-02-26T02:47:16;2.60;99.90
21403;DHT22;10862;51.886;17.078;2024-02-26T02:49:42;2.50;99.90
21403;DHT22;10862;51.886;17.078;2024-02-26T02:52:07;3.50;99.90
21403;DHT22;10862;51.886;17.078;2024-02-26T02:54:33;2.50;99.90
21403;DHT22;10862;51.886;17.078;2024-02-26T02:56:58;2.60;99.90
21403;DHT22;10862;51.886;17.078;2024-02-26T02:59:25;4.20;99.90
21403;DHT22;10862;51.886;17.078;2024-02-26T03:01:50;3.00;99.90
21403;DHT22;10862;51.886;17.078;2024-02-26T03:04:16;2.60;99.90
21403;DHT22;10862;51.886;17.078;2024-02-26T03:06:41;3.30;99.90
21403;DHT22;10862;51.886;17.078;2024-02-26T03:09:07;2.80;99.90
21403;DHT22;10862;51.886;17.078;2024-02-26T03:11:32;2.90;99.90
21403;DHT22;10862;51.886;17.078;2024-02-26T03:13:58;2.90;99.90
21403;DHT22;10862;51.886;17.078;2024-02-26T03:16:23;4.00;99.90
21403;DHT22;10862;51.886;17.078;2024-02-26T03:18:49;3.10;99.90
21403;DHT22;10862;51.886;17.078;2024-02-26T03:21:14;2.90;99.90
21403;DHT22;10862;51.886;17.078;2024-02-26T03:23:40;3.10;99.90
21403;DHT22;10862;51.886;17.078;2024-02-26T03:26:05;3.80;99.90
21403;DHT22;10862;51.886;17.078;2024-02-26T03:28:31;3.30;99.90
21403;DHT22;10862;51.886;17.078;2024-02-26T03:30:59;4.30;99.90
21403;DHT22;10862;51.886;17.078;2024-02-26T03:33:24;4.70;99.90
21403;DHT22;10862;51.886;17.078;2024-02-26T03:35:50;4.90;99.90
21403;DHT22;10862;51.886;17.078;2024-02-26T03:38:15;3.20;99.90
21403;DHT22;10862;51.886;17.078;2024-02-26T03:40:41;4.30;99.90
21403;DHT22;10862;51.886;17.078;2024-02-26T03:43:06;3.00;99.90
21403;DHT22;10862;51.886;17.078;2024-02-26T03:45:32;2.80;99.90
21403;DHT22;10862;51.886;17.078;2024-02-26T03:47:58;2.70;99.90
21403;DHT22;10862;51.886;17.078;2024-02-26T03:50:24;3.70;99.90
21403;DHT22;10862;51.886;17.078;2024-02-26T03:52:49;3.50;99.90
21403;DHT22;10862;51.886;17.078;2024-02-26T03:55:15;3.10;99.90
21403;DHT22;10862;51.886;17.078;2024-02-26T03:57:40;2.90;99.90
21403;DHT22;10862;51.886;17.078;2024-02-26T04:00:06;3.90;99.90
21403;DHT22;10862;51.886;17.078;2024-02-26T04:02:32;2.80;99.90
21403;DHT22;10862;51.886;17.078;2024-02-26T04:04:57;3.40;99.90
21403;DHT22;10862;51.886;17.078;2024-02-26T04:07:24;3.00;99.90
21403;DHT22;10862;51.886;17.078;2024-02-26T04:09:50;3.00;99.90
21403;DHT22;10862;51.886;17.078;2024-02-26T04:12:15;3.10;99.90
21403;DHT22;10862;51.886;17.078;2024-02-26T04:14:41;2.40;99.90
21403;DHT22;10862;51.886;17.078;2024-02-26T04:17:06;2.30;99.90
21403;DHT22;10862;51.886;17.078;2024-02-26T04:19:32;3.60;99.90
21403;DHT22;10862;51.886;17.078;2024-02-26T04:21:57;2.60;99.90
21403;DHT22;10862;51.886;17.078;2024-02-26T04:24:23;3.40;99.90
21403;DHT22;10862;51.886;17.078;2024-02-26T04:26:48;2.60;99.90
21403;DHT22;10862;51.886;17.078;2024-02-26T04:29:15;3.60;99.90
21403;DHT22;10862;51.886;17.078;2024-02-26T04:31:40;2.70;99.90
21403;DHT22;10862;51.886;17.078;2024-02-26T04:34:07;4.10;99.90
21403;DHT22;10862;51.886;17.078;2024-02-26T04:36:33;4.00;99.90
21403;DHT22;10862;51.886;17.078;2024-02-26T04:38:58;2.70;99.90
21403;DHT22;10862;51.886;17.078;2024-02-26T04:41:24;2.80;99.90
21403;DHT22;10862;51.886;17.078;2024-02-26T04:43:49;2.60;99.90
21403;DHT22;10862;51.886;17.078;2024-02-26T04:46:15;3.90;99.90
21403;DHT22;10862;51.886;17.078;2024-02-26T04:48:41;2.40;99.90
21403;DHT22;10862;51.886;17.078;2024-02-26T04:51:07;4.00;99.90
21403;DHT22;10862;51.886;17.078;2024-02-26T04:53:32;3.50;99.90
21403;DHT22;10862;51.886;17.078;2024-02-26T04:55:58;3.00;99.90
21403;DHT22;10862;51.886;17.078;2024-02-26T04:58:24;3.70;99.90
21403;DHT22;10862;51.886;17.078;2024-02-26T05:00:49;3.70;99.90
21403;DHT22;10862;51.886;17.078;2024-02-26T05:03:15;4.10;99.90
21403;DHT22;10862;51.886;17.078;2024-02-26T05:05:44;2.70;99.90
21403;DHT22;10862;51.886;17.078;2024-02-26T05:08:09;2.60;99.90
21403;DHT22;10862;51.886;17.078;2024-02-26T05:10:35;4.30;99.90
21403;DHT22;10862;51.886;17.078;2024-02-26T05:13:04;3.00;99.90
21403;DHT22;10862;51.886;17.078;2024-02-26T05:15:30;2.80;99.90
21403;DHT22;10862;51.886;17.078;2024-02-26T05:17:55;4.40;99.90
21403;DHT22;10862;51.886;17.078;2024-02-26T05:20:21;3.00;99.90
21403;DHT22;10862;51.886;17.078;2024-02-26T05:22:46;3.30;99.90
21403;DHT22;10862;51.886;17.078;2024-02-26T05:25:16;3.80;99.90
21403;DHT22;10862;51.886;17.078;2024-02-26T05:27:43;2.80;99.90
21403;DHT22;10862;51.886;17.078;2024-02-26T05:30:09;3.10;99.90
21403;DHT22;10862;51.886;17.078;2024-02-26T05:32:34;2.70;99.90
21403;DHT22;10862;51.886;17.078;2024-02-26T05:35:00;2.80;99.90
21403;DHT22;10862;51.886;17.078;2024-02-26T05:37:25;2.70;99.90
21403;DHT22;10862;51.886;17.078;2024-02-26T05:39:51;3.40;99.90
21403;DHT22;10862;51.886;17.078;2024-02-26T05:42:17;4.20;99.90
21403;DHT22;10862;51.886;17.078;2024-02-26T05:44:42;2.90;99.90
21403;DHT22;10862;51.886;17.078;2024-02-26T05:47:08;4.00;99.90
21403;DHT22;10862;51.886;17.078;2024-02-26T05:49:33;2.90;99.90
21403;DHT22;10862;51.886;17.078;2024-02-26T05:51:59;2.70;99.90
21403;DHT22;10862;51.886;17.078;2024-02-26T05:54:24;4.20;99.90
21403;DHT22;10862;51.886;17.078;2024-02-26T05:56:50;3.40;99.90
21403;DHT22;10862;51.886;17.078;2024-02-26T05:59:15;3.40;99.90
21403;DHT22;10862;51.886;17.078;2024-02-26T06:01:41;3.00;99.90
21403;DHT22;10862;51.886;17.078;2024-02-26T06:04:06;4.40;99.90
21403;DHT22;10862;51.886;17.078;2024-02-26T06:06:32;2.80;99.90
21403;DHT22;10862;51.886;17.078;2024-02-26T06:08:57;4.30;99.90
21403;DHT22;10862;51.886;17.078;2024-02-26T06:11:23;3.20;99.90
21403;DHT22;10862;51.886;17.078;2024-02-26T06:13:48;3.20;99.90
21403;DHT22;10862;51.886;17.078;2024-02-26T06:16:14;3.30;99.90
21403;DHT22;10862;51.886;17.078;2024-02-26T06:18:39;3.20;99.90
21403;DHT22;10862;51.886;17.078;2024-02-26T06:21:08;3.40;99.90
21403;DHT22;10862;51.886;17.078;2024-02-26T06:23:34;4.70;99.90
21403;DHT22;10862;51.886;17.078;2024-02-26T06:25:59;4.10;99.90
21403;DHT22;10862;51.886;17.078;2024-02-26T06:28:25;4.80;99.90
21403;DHT22;10862;51.886;17.078;2024-02-26T06:30:50;3.30;99.90
21403;DHT22;10862;51.886;17.078;2024-02-26T06:33:17;5.20;99.90
21403;DHT22;10862;51.886;17.078;2024-02-26T06:35:43;4.60;99.90
21403;DHT22;10862;51.886;17.078;2024-02-26T06:38:09;4.10;99.90
21403;DHT22;10862;51.886;17.078;2024-02-26T06:40:36;4.10;99.90
21403;DHT22;10862;51.886;17.078;2024-02-26T06:43:02;3.90;99.90
21403;DHT22;10862;51.886;17.078;2024-02-26T06:45:27;4.20;99.90
21403;DHT22;10862;51.886;17.078;2024-02-26T06:47:53;5.30;99.90
21403;DHT22;10862;51.886;17.078;2024-02-26T06:50:19;3.60;99.90
21403;DHT22;10862;51.886;17.078;2024-02-26T06:52:44;5.00;99.90
21403;DHT22;10862;51.886;17.078;2024-02-26T06:55:11;4.70;99.90
21403;DHT22;10862;51.886;17.078;2024-02-26T06:57:36;4.30;99.90
21403;DHT22;10862;51.886;17.078;2024-02-26T07:00:02;3.80;99.90
21403;DHT22;10862;51.886;17.078;2024-02-26T07:02:29;4.20;99.90
21403;DHT22;10862;51.886;17.078;2024-02-26T07:04:54;4.50;99.90
21403;DHT22;10862;51.886;17.078;2024-02-26T07:07:21;5.10;99.90
21403;DHT22;10862;51.886;17.078;2024-02-26T07:09:47;4.10;99.90
21403;DHT22;10862;51.886;17.078;2024-02-26T07:12:13;4.40;99.90
21403;DHT22;10862;51.886;17.078;2024-02-26T07:14:39;4.40;99.90
21403;DHT22;10862;51.886;17.078;2024-02-26T07:17:04;5.00;99.90
21403;DHT22;10862;51.886;17.078;2024-02-26T07:19:30;5.40;99.90
21403;DHT22;10862;51.886;17.078;2024-02-26T07:21:56;5.30;99.90
21403;DHT22;10862;51.886;17.078;2024-02-26T07:24:21;5.10;99.90
21403;DHT22;10862;51.886;17.078;2024-02-26T07:26:47;5.00;99.90
21403;DHT22;10862;51.886;17.078;2024-02-26T07:29:12;5.10;99.90
21403;DHT22;10862;51.886;17.078;2024-02-26T07:31:38;5.70;99.90
21403;DHT22;10862;51.886;17.078;2024-02-26T07:34:03;5.20;99.90
21403;DHT22;10862;51.886;17.078;2024-02-26T07:36:29;5.80;99.90
21403;DHT22;10862;51.886;17.078;2024-02-26T07:38:54;5.30;99.90
21403;DHT22;10862;51.886;17.078;2024-02-26T07:41:20;5.30;99.90
21403;DHT22;10862;51.886;17.078;2024-02-26T07:43:45;5.70;99.90
21403;DHT22;10862;51.886;17.078;2024-02-26T07:46:11;5.80;99.90
21403;DHT22;10862;51.886;17.078;2024-02-26T07:48:38;5.80;99.90
21403;DHT22;10862;51.886;17.078;2024-02-26T07:51:03;5.90;99.90
21403;DHT22;10862;51.886;17.078;2024-02-26T07:53:29;5.80;99.90
21403;DHT22;10862;51.886;17.078;2024-02-26T07:55:55;6.20;99.90
21403;DHT22;10862;51.886;17.078;2024-02-26T07:58:21;6.00;99.90
21403;DHT22;10862;51.886;17.078;2024-02-26T08:00:47;6.20;99.90
21403;DHT22;10862;51.886;17.078;2024-02-26T08:03:12;6.80;99.90
21403;DHT22;10862;51.886;17.078;2024-02-26T08:05:41;6.00;99.90
21403;DHT22;10862;51.886;17.078;2024-02-26T08:08:08;6.90;99.90
21403;DHT22;10862;51.886;17.078;2024-02-26T08:10:33;6.30;99.90
21403;DHT22;10862;51.886;17.078;2024-02-26T08:12:59;6.60;99.90
21403;DHT22;10862;51.886;17.078;2024-02-26T08:15:30;7.10;99.90
21403;DHT22;10862;51.886;17.078;2024-02-26T08:17:56;7.50;99.90
21403;DHT22;10862;51.886;17.078;2024-02-26T08:20:21;7.10;99.90
21403;DHT22;10862;51.886;17.078;2024-02-26T08:22:47;7.50;99.90
21403;DHT22;10862;51.886;17.078;2024-02-26T08:25:12;7.80;99.90
21403;DHT22;10862;51.886;17.078;2024-02-26T08:27:38;8.50;99.60
21403;DHT22;10862;51.886;17.078;2024-02-26T08:30:03;9.10;1.00
21403;DHT22;10862;51.886;17.078;2024-02-26T08:32:29;9.00;1.00
21403;DHT22;10862;51.886;17.078;2024-02-26T08:34:55;9.90;99.90
21403;DHT22;10862;51.886;17.078;2024-02-26T08:37:20;10.70;99.90
21403;DHT22;10862;51.886;17.078;2024-02-26T08:39:46;11.60;99.90
21403;DHT22;10862;51.886;17.078;2024-02-26T08:42:12;11.90;1.00
21403;DHT22;10862;51.886;17.078;2024-02-26T08:44:37;13.10;1.00
21403;DHT22;10862;51.886;17.078;2024-02-26T08:47:03;13.70;1.00
21403;DHT22;10862;51.886;17.078;2024-02-26T08:49:28;14.00;1.00
21403;DHT22;10862;51.886;17.078;2024-02-26T08:51:54;13.20;1.00
21403;DHT22;10862;51.886;17.078;2024-02-26T08:54:19;12.90;99.90
21403;DHT22;10862;51.886;17.078;2024-02-26T08:56:45;13.60;1.00
21403;DHT22;10862;51.886;17.078;2024-02-26T08:59:10;14.40;1.00
21403;DHT22;10862;51.886;17.078;2024-02-26T09:01:36;15.20;1.00
21403;DHT22;10862;51.886;17.078;2024-02-26T09:04:01;15.10;99.90
21403;DHT22;10862;51.886;17.078;2024-02-26T09:06:27;14.90;1.00
21403;DHT22;10862;51.886;17.078;2024-02-26T09:08:53;14.50;1.00
21403;DHT22;10862;51.886;17.078;2024-02-26T09:11:18;14.80;1.00
21403;DHT22;10862;51.886;17.078;2024-02-26T09:13:44;15.20;1.00
21403;DHT22;10862;51.886;17.078;2024-02-26T09:16:09;16.10;21.20
21403;DHT22;10862;51.886;17.078;2024-02-26T09:18:36;17.00;99.90
21403;DHT22;10862;51.886;17.078;2024-02-26T09:21:05;18.30;1.00
21403;DHT22;10862;51.886;17.078;2024-02-26T09:23:33;18.90;25.70
21403;DHT22;10862;51.886;17.078;2024-02-26T09:26:00;18.70;99.90
21403;DHT22;10862;51.886;17.078;2024-02-26T09:28:25;16.60;81.70
21403;DHT22;10862;51.886;17.078;2024-02-26T09:30:51;15.50;1.00
21403;DHT22;10862;51.886;17.078;2024-02-26T09:33:16;15.60;99.90
21403;DHT22;10862;51.886;17.078;2024-02-26T09:35:42;16.30;1.00
21403;DHT22;10862;51.886;17.078;2024-02-26T09:38:07;16.10;14.40
21403;DHT22;10862;51.886;17.078;2024-02-26T09:40:33;16.80;1.00
21403;DHT22;10862;51.886;17.078;2024-02-26T09:42:59;17.20;1.00
21403;DHT22;10862;51.886;17.078;2024-02-26T09:45:25;17.90;72.10
21403;DHT22;10862;51.886;17.078;2024-02-26T09:47:52;17.10;46.80
21403;DHT22;10862;51.886;17.078;2024-02-26T09:50:20;17.60;7.30
21403;DHT22;10862;51.886;17.078;2024-02-26T09:52:48;17.60;1.00
21403;DHT22;10862;51.886;17.078;2024-02-26T09:55:13;17.90;99.90
21403;DHT22;10862;51.886;17.078;2024-02-26T09:57:39;17.90;44.60
21403;DHT22;10862;51.886;17.078;2024-02-26T10:00:08;19.50;66.40
21403;DHT22;10862;51.886;17.078;2024-02-26T10:02:35;19.80;30.40
21403;DHT22;10862;51.886;17.078;2024-02-26T10:05:02;18.50;96.50
21403;DHT22;10862;51.886;17.078;2024-02-26T10:07:30;18.10;99.90
21403;DHT22;10862;51.886;17.078;2024-02-26T10:09:56;18.10;99.90
21403;DHT22;10862;51.886;17.078;2024-02-26T10:12:21;18.10;99.90
21403;DHT22;10862;51.886;17.078;2024-02-26T10:14:47;18.10;99.90
21403;DHT22;10862;51.886;17.078;2024-02-26T10:17:12;17.00;99.90
21403;DHT22;10862;51.886;17.078;2024-02-26T10:19:38;17.40;99.90
21403;DHT22;10862;51.886;17.078;2024-02-26T10:22:03;18.40;99.90
21403;DHT22;10862;51.886;17.078;2024-02-26T10:24:30;18.10;99.90
21403;DHT22;10862;51.886;17.078;2024-02-26T10:26:56;17.90;99.90
21403;DHT22;10862;51.886;17.078;2024-02-26T10:29:23;17.40;99.90
21403;DHT22;10862;51.886;17.078;2024-02-26T10:31:48;17.00;99.90
21403;DHT22;10862;51.886;17.078;2024-02-26T10:34:17;16.70;99.90
21403;DHT22;10862;51.886;17.078;2024-02-26T10:36:42;17.10;27.90
21403;DHT22;10862;51.886;17.078;2024-02-26T10:39:09;17.90;1.00
21403;DHT22;10862;51.886;17.078;2024-02-26T10:41:36;17.60;16.60
21403;DHT22;10862;51.886;17.078;2024-02-26T10:44:02;18.60;36.80
21403;DHT22;10862;51.886;17.078;2024-02-26T10:46:27;18.90;1.00
21403;DHT22;10862;51.886;17.078;2024-02-26T10:48:53;18.50;1.00
21403;DHT22;10862;51.886;17.078;2024-02-26T10:51:25;18.50;99.90
21403;DHT22;10862;51.886;17.078;2024-02-26T10:53:51;18.50;99.90
21403;DHT22;10862;51.886;17.078;2024-02-26T10:56:22;18.40;99.90
21403;DHT22;10862;51.886;17.078;2024-02-26T10:58:50;19.10;99.90
21403;DHT22;10862;51.886;17.078;2024-02-26T11:01:16;19.10;1.00
21403;DHT22;10862;51.886;17.078;2024-02-26T11:03:41;19.20;99.90
21403;DHT22;10862;51.886;17.078;2024-02-26T11:06:07;19.50;1.00
21403;DHT22;10862;51.886;17.078;2024-02-26T11:08:33;19.00;1.00
21403;DHT22;10862;51.886;17.078;2024-02-26T11:10:59;18.20;10.30
21403;DHT22;10862;51.886;17.078;2024-02-26T11:13:26;19.20;99.90
21403;DHT22;10862;51.886;17.078;2024-02-26T11:15:53;19.40;91.40
21403;DHT22;10862;51.886;17.078;2024-02-26T11:18:20;19.60;99.90
21403;DHT22;10862;51.886;17.078;2024-02-26T11:20:48;20.00;64.90
21403;DHT22;10862;51.886;17.078;2024-02-26T11:23:17;20.00;59.60
21403;DHT22;10862;51.886;17.078;2024-02-26T11:25:42;20.60;47.60
21403;DHT22;10862;51.886;17.078;2024-02-26T11:28:09;20.20;32.10
21403;DHT22;10862;51.886;17.078;2024-02-26T11:30:36;19.30;22.80
21403;DHT22;10862;51.886;17.078;2024-02-26T11:33:03;19.60;36.30
21403;DHT22;10862;51.886;17.078;2024-02-26T11:35:29;19.00;52.30
21403;DHT22;10862;51.886;17.078;2024-02-26T11:37:55;18.10;47.50
21403;DHT22;10862;51.886;17.078;2024-02-26T11:40:24;17.00;24.30
21403;DHT22;10862;51.886;17.078;2024-02-26T11:42:51;16.30;11.60
21403;DHT22;10862;51.886;17.078;2024-02-26T11:48:15;16.10;16.60
21403;DHT22;10862;51.886;17.078;2024-02-26T11:50:41;16.30;55.30
21403;DHT22;10862;51.886;17.078;2024-02-26T11:55:48;15.70;30.50
21403;DHT22;10862;51.886;17.078;2024-02-26T11:58:14;15.80;5.90
21403;DHT22;10862;51.886;17.078;2024-02-26T12:00:40;15.40;10.70
21403;DHT22;10862;51.886;17.078;2024-02-26T12:03:06;15.10;44.00
21403;DHT22;10862;51.886;17.078;2024-02-26T12:05:34;14.90;69.80
21403;DHT22;10862;51.886;17.078;2024-02-26T12:08:07;15.00;39.20
21403;DHT22;10862;51.886;17.078;2024-02-26T12:10:35;15.00;9.90
21403;DHT22;10862;51.886;17.078;2024-02-26T12:13:08;14.50;35.40
21403;DHT22;10862;51.886;17.078;2024-02-26T12:15:38;14.50;55.40
21403;DHT22;10862;51.886;17.078;2024-02-26T12:18:04;14.50;33.20
21403;DHT22;10862;51.886;17.078;2024-02-26T12:20:30;14.70;13.70
21403;DHT22;10862;51.886;17.078;2024-02-26T12:22:56;14.80;19.90
21403;DHT22;10862;51.886;17.078;2024-02-26T12:25:25;15.00;23.30
21403;DHT22;10862;51.886;17.078;2024-02-26T12:27:52;15.00;14.50
21403;DHT22;10862;51.886;17.078;2024-02-26T12:30:17;15.10;6.00
21403;DHT22;10862;51.886;17.078;2024-02-26T12:32:44;15.00;22.40
21403;DHT22;10862;51.886;17.078;2024-02-26T12:35:10;15.20;1.00
21403;DHT22;10862;51.886;17.078;2024-02-26T12:37:36;14.90;37.10
21403;DHT22;10862;51.886;17.078;2024-02-26T12:40:04;14.90;32.00
21403;DHT22;10862;51.886;17.078;2024-02-26T12:42:31;14.90;23.80
21403;DHT22;10862;51.886;17.078;2024-02-26T12:45:05;15.00;17.40
21403;DHT22;10862;51.886;17.078;2024-02-26T12:47:43;15.20;50.10
21403;DHT22;10862;51.886;17.078;2024-02-26T12:50:10;15.00;29.60
21403;DHT22;10862;51.886;17.078;2024-02-26T12:52:36;14.90;85.00
21403;DHT22;10862;51.886;17.078;2024-02-26T12:55:02;15.20;58.70
21403;DHT22;10862;51.886;17.078;2024-02-26T12:57:31;15.20;70.50
21403;DHT22;10862;51.886;17.078;2024-02-26T12:59:58;15.00;81.40
21403;DHT22;10862;51.886;17.078;2024-02-26T13:02:24;15.00;82.10
21403;DHT22;10862;51.886;17.078;2024-02-26T13:04:50;14.90;62.80
21403;DHT22;10862;51.886;17.078;2024-02-26T13:07:16;14.90;9.20
21403;DHT22;10862;51.886;17.078;2024-02-26T13:09:41;14.70;67.70
21403;DHT22;10862;51.886;17.078;2024-02-26T13:12:07;14.80;40.90
21403;DHT22;10862;51.886;17.078;2024-02-26T13:14:33;14.90;37.20
21403;DHT22;10862;51.886;17.078;2024-02-26T13:16:59;14.90;1.00
21403;DHT22;10862;51.886;17.078;2024-02-26T13:19:25;15.00;50.10
21403;DHT22;10862;51.886;17.078;2024-02-26T13:21:51;14.90;25.80
21403;DHT22;10862;51.886;17.078;2024-02-26T13:24:17;14.60;41.50
21403;DHT22;10862;51.886;17.078;2024-02-26T13:26:45;14.60;31.80
21403;DHT22;10862;51.886;17.078;2024-02-26T13:29:16;14.70;53.80
21403;DHT22;10862;51.886;17.078;2024-02-26T13:31:42;14.80;1.00
21403;DHT22;10862;51.886;17.078;2024-02-26T13:34:07;15.00;5.10
21403;DHT22;10862;51.886;17.078;2024-02-26T13:36:32;14.60;3.10
21403;DHT22;10862;51.886;17.078;2024-02-26T13:38:58;14.50;26.80
21403;DHT22;10862;51.886;17.078;2024-02-26T13:41:24;14.60;16.10
21403;DHT22;10862;51.886;17.078;2024-02-26T13:43:50;14.50;15.40
21403;DHT22;10862;51.886;17.078;2024-02-26T13:46:15;14.40;6.80
21403;DHT22;10862;51.886;17.078;2024-02-26T13:48:42;14.30;1.00
21403;DHT22;10862;51.886;17.078;2024-02-26T13:51:07;14.30;27.00
21403;DHT22;10862;51.886;17.078;2024-02-26T13:53:33;14.20;1.70
21403;DHT22;10862;51.886;17.078;2024-02-26T13:55:58;14.10;44.00
21403;DHT22;10862;51.886;17.078;2024-02-26T13:58:29;14.10;37.10
21403;DHT22;10862;51.886;17.078;2024-02-26T14:00:55;13.90;47.40
21403;DHT22;10862;51.886;17.078;2024-02-26T14:03:20;13.80;94.10
21403;DHT22;10862;51.886;17.078;2024-02-26T14:05:46;13.80;91.60
21403;DHT22;10862;51.886;17.078;2024-02-26T14:08:11;13.70;99.10
21403;DHT22;10862;51.886;17.078;2024-02-26T14:10:37;13.70;99.90
21403;DHT22;10862;51.886;17.078;2024-02-26T14:13:03;13.60;99.90
21403;DHT22;10862;51.886;17.078;2024-02-26T14:15:28;13.50;99.90
21403;DHT22;10862;51.886;17.078;2024-02-26T14:17:55;13.50;99.90
21403;DHT22;10862;51.886;17.078;2024-02-26T14:20:21;13.50;99.90
21403;DHT22;10862;51.886;17.078;2024-02-26T14:22:48;13.50;99.90
21403;DHT22;10862;51.886;17.078;2024-02-26T14:25:14;13.40;99.90
21403;DHT22;10862;51.886;17.078;2024-02-26T14:27:39;13.50;99.90
21403;DHT22;10862;51.886;17.078;2024-02-26T14:30:05;13.30;99.90
21403;DHT22;10862;51.886;17.078;2024-02-26T14:32:31;13.20;99.90
21403;DHT22;10862;51.886;17.078;2024-02-26T14:35:00;13.10;99.90
21403;DHT22;10862;51.886;17.078;2024-02-26T14:37:26;13.20;99.90
21403;DHT22;10862;51.886;17.078;2024-02-26T14:39:51;13.40;99.70
21403;DHT22;10862;51.886;17.078;2024-02-26T14:42:18;13.60;41.40
21403;DHT22;10862;51.886;17.078;2024-02-26T14:44:44;13.70;29.90
21403;DHT22;10862;51.886;17.078;2024-02-26T14:47:09;13.80;46.40
21403;DHT22;10862;51.886;17.078;2024-02-26T14:49:35;13.60;99.90
21403;DHT22;10862;51.886;17.078;2024-02-26T14:52:00;13.50;99.90
21403;DHT22;10862;51.886;17.078;2024-02-26T14:54:28;13.40;99.90
21403;DHT22;10862;51.886;17.078;2024-02-26T14:56:58;13.40;99.90
21403;DHT22;10862;51.886;17.078;2024-02-26T14:59:23;13.50;99.90
21403;DHT22;10862;51.886;17.078;2024-02-26T15:01:49;13.40;99.90
21403;DHT22;10862;51.886;17.078;2024-02-26T15:04:15;13.50;99.90
21403;DHT22;10862;51.886;17.078;2024-02-26T15:06:40;13.60;99.90
21403;DHT22;10862;51.886;17.078;2024-02-26T15:09:06;13.80;99.90
21403;DHT22;10862;51.886;17.078;2024-02-26T15:11:31;13.90;99.90
21403;DHT22;10862;51.886;17.078;2024-02-26T15:13:57;13.80;99.90
21403;DHT22;10862;51.886;17.078;2024-02-26T15:16:22;13.60;99.90
21403;DHT22;10862;51.886;17.078;2024-02-26T15:18:48;13.40;99.90
21403;DHT22;10862;51.886;17.078;2024-02-26T15:21:13;13.40;99.90
21403;DHT22;10862;51.886;17.078;2024-02-26T15:23:42;13.50;99.90